WXM80 ListenWXM80 Stop

You find our weather info also at:

UK Metoffice

WeatherCloud

Weather Underground

Northeastern Weather Network

AWEKAS

Citizen Weather Observer Program (CWOP)

HAMweather, WeatherForYou, PWS Weather


Weather Underground History page Text

Daily Summary for October 14, 2017 Units:  English    Metric   Both
« Previous Day
Next Day »
Daily Weekly Monthly Yearly Custom
  High: Low: Average:
Temperature: 72.6 °F 61.6 °F 65.9 °F
Dew Point: 67.7 °F 59.3 °F 63.5 °F
Humidity: 97 % 82 % 92 %
Wind Speed: 5.2 mph 0.0 mph 1.1 mph
Wind Gust: 9.2 mph - -
Wind:- - ENE
Pressure: 30.25 in 29.99 in -
Precipitation: 0.02 in    
Historical Graphs
 
 
Tabular Data for October 14, 2017
Time Temperature Dew Point Pressure Wind Wind Speed Wind Gust Humidity Rainfall Rate (Hourly)
00:04 61.6 °F 59.3 °F 30.25 in Calm     92 % 0.00 in
00:09 61.6 °F 59.3 °F 30.25 in SE 0.3 mph 1.2 mph 92 % 0.00 in
00:14 61.7 °F 59.4 °F 30.25 in Calm   1.2 mph 92 % 0.00 in
00:19 61.7 °F 59.4 °F 30.25 in Calm   1.2 mph 92 % 0.00 in
00:24 61.8 °F 59.5 °F 30.25 in Calm   1.2 mph 92 % 0.00 in
00:29 61.8 °F 59.5 °F 30.25 in SE 0.1 mph 1.2 mph 92 % 0.00 in
00:34 61.9 °F 59.5 °F 30.25 in SE 0.3 mph 1.2 mph 92 % 0.00 in
00:39 61.9 °F 59.5 °F 30.25 in Calm   1.0 mph 92 % 0.00 in
00:44 61.9 °F 59.5 °F 30.25 in Calm     92 % 0.00 in
00:49 62.0 °F 59.6 °F 30.25 in Calm     92 % 0.00 in
00:54 62.0 °F 59.6 °F 30.25 in Calm     92 % 0.00 in
00:59 62.1 °F 60.1 °F 30.25 in Calm   1.2 mph 93 % 0.00 in
01:04 62.1 °F 60.1 °F 30.24 in SE 0.1 mph 1.2 mph 93 % 0.00 in
01:09 62.2 °F 60.2 °F 30.24 in Calm     93 % 0.00 in
01:14 62.2 °F 60.2 °F 30.24 in Calm     93 % 0.00 in
01:19 62.2 °F 60.2 °F 30.24 in Calm   1.2 mph 93 % 0.00 in
01:24 62.2 °F 60.2 °F 30.24 in Calm   1.0 mph 93 % 0.00 in
01:29 62.2 °F 60.2 °F 30.24 in SE 0.2 mph 1.2 mph 93 % 0.00 in
01:34 62.2 °F 60.2 °F 30.25 in Calm     93 % 0.00 in
01:39 62.1 °F 60.4 °F 30.25 in Calm   1.0 mph 94 % 0.00 in
01:44 62.1 °F 60.4 °F 30.24 in Calm     94 % 0.00 in
01:50 62.1 °F 60.4 °F 30.24 in Calm     94 % 0.00 in
01:55 62.2 °F 60.5 °F 30.24 in Calm     94 % 0.00 in
02:00 62.2 °F 60.5 °F 30.23 in Calm     94 % 0.00 in
02:05 62.3 °F 60.6 °F 30.24 in Calm   1.0 mph 94 % 0.00 in
02:10 62.4 °F 60.7 °F 30.23 in SE 0.1 mph 1.2 mph 94 % 0.00 in
02:15 62.5 °F 60.7 °F 30.22 in SE 0.5 mph 1.2 mph 94 % 0.00 in
02:20 62.5 °F 60.7 °F 30.23 in SE 0.2 mph 1.2 mph 94 % 0.00 in
02:25 62.6 °F 60.8 °F 30.23 in Calm   1.2 mph 94 % 0.00 in
02:30 62.7 °F 60.9 °F 30.23 in Calm   1.2 mph 94 % 0.00 in
02:35 62.8 °F 61.3 °F 30.23 in Calm   1.2 mph 95 % 0.01 in
02:40 62.8 °F 61.3 °F 30.22 in Calm     95 % 0.01 in
02:45 62.9 °F 61.4 °F 30.22 in Calm   1.2 mph 95 % 0.01 in
02:50 62.9 °F 61.4 °F 30.23 in SE 0.2 mph 1.2 mph 95 % 0.01 in
02:56 62.9 °F 61.4 °F 30.22 in Calm   1.0 mph 95 % 0.00 in
03:01 62.9 °F 61.4 °F 30.21 in SE 0.2 mph 1.2 mph 95 % 0.01 in
03:06 63.0 °F 61.5 °F 30.21 in East 0.8 mph 2.3 mph 95 % 0.01 in
03:11 63.0 °F 61.5 °F 30.20 in ENE 1.0 mph 4.0 mph 95 % 0.00 in
03:16 63.0 °F 61.5 °F 30.21 in ENE 4.3 mph 5.8 mph 95 % 0.01 in
03:21 62.9 °F 61.4 °F 30.20 in ENE 3.0 mph 8.0 mph 95 % 0.00 in
03:26 62.9 °F 61.4 °F 30.20 in ENE 2.0 mph 7.0 mph 95 % 0.00 in
03:31 62.8 °F 61.3 °F 30.21 in ENE 3.0 mph 9.0 mph 95 % 0.00 in
03:36 62.7 °F 61.3 °F 30.21 in NE 2.0 mph 9.0 mph 95 % 0.00 in
03:41 62.7 °F 61.2 °F 30.21 in ENE 2.0 mph 8.0 mph 95 % 0.00 in
03:51 62.7 °F 61.2 °F 30.21 in ENE 2.0 mph 5.0 mph 95 % 0.00 in
03:56 62.7 °F 61.2 °F 30.20 in NE 2.0 mph 6.0 mph 95 % 0.00 in
04:01 62.7 °F 61.2 °F 30.20 in ENE 2.6 mph 3.5 mph 95 % 0.00 in
04:05 62.7 °F 61.2 °F 30.21 in ENE 1.1 mph 2.3 mph 95 % 0.00 in
04:10 62.8 °F 61.3 °F 30.21 in ENE 0.9 mph 3.5 mph 95 % 0.00 in
04:16 62.8 °F 61.3 °F 30.20 in ENE 3.0 mph 7.0 mph 95 % 0.00 in
04:21 62.8 °F 61.3 °F 30.20 in ENE 1.0 mph 7.0 mph 95 % 0.00 in
04:26 62.8 °F 61.3 °F 30.20 in ENE 2.0 mph 9.0 mph 95 % 0.00 in
04:31 62.8 °F 61.3 °F 30.20 in ENE 1.0 mph 5.0 mph 95 % 0.00 in
04:36 62.8 °F 61.3 °F 30.20 in NE 2.0 mph 8.0 mph 95 % 0.00 in
04:41 62.8 °F 61.3 °F 30.20 in NE 1.0 mph 7.0 mph 95 % 0.00 in
04:46 62.8 °F 61.4 °F 30.20 in Calm   3.0 mph 95 % 0.00 in
04:51 62.9 °F 61.4 °F 30.20 in ENE 1.0 mph 5.0 mph 95 % 0.00 in
04:56 62.9 °F 61.4 °F 30.20 in ENE 1.0 mph 7.0 mph 95 % 0.00 in
05:01 62.9 °F 61.4 °F 30.19 in ENE 0.5 mph 2.3 mph 95 % 0.00 in
05:06 63.0 °F 61.8 °F 30.20 in ENE 2.4 mph 4.0 mph 96 % 0.00 in
05:11 63.0 °F 61.8 °F 30.19 in ENE 2.3 mph 3.5 mph 96 % 0.00 in
05:16 63.1 °F 61.9 °F 30.19 in ENE 1.1 mph 3.5 mph 96 % 0.00 in
05:21 63.1 °F 61.9 °F 30.19 in ENE 2.1 mph 3.5 mph 96 % 0.00 in
05:26 63.1 °F 61.9 °F 30.20 in NE 2.6 mph 3.5 mph 96 % 0.00 in
05:31 63.2 °F 62.0 °F 30.20 in East 1.2 mph 3.5 mph 96 % 0.00 in
05:36 63.2 °F 62.0 °F 30.20 in ENE 1.5 mph 2.3 mph 96 % 0.00 in
05:41 63.2 °F 62.0 °F 30.20 in ENE 3.5 mph 9.2 mph 96 % 0.00 in
05:46 63.3 °F 62.1 °F 30.20 in NE 2.0 mph 4.6 mph 96 % 0.00 in
05:51 63.3 °F 62.1 °F 30.20 in ENE 1.1 mph 2.3 mph 96 % 0.00 in
05:56 63.4 °F 62.2 °F 30.20 in ENE 2.2 mph 3.5 mph 96 % 0.00 in
06:01 63.4 °F 61.9 °F 30.20 in ENE 2.5 mph 4.0 mph 95 % 0.00 in
06:06 63.4 °F 61.9 °F 30.19 in ENE 2.4 mph 4.0 mph 95 % 0.00 in
06:11 63.5 °F 62.0 °F 30.19 in ENE 1.0 mph 3.5 mph 95 % 0.00 in
06:16 63.5 °F 62.0 °F 30.19 in ENE 2.1 mph 5.0 mph 95 % 0.00 in
06:21 63.6 °F 62.4 °F 30.19 in ENE 1.1 mph 3.5 mph 96 % 0.00 in
06:26 63.6 °F 62.4 °F 30.19 in ENE 1.5 mph 2.3 mph 96 % 0.00 in
06:31 63.7 °F 62.5 °F 30.19 in ENE 0.4 mph 2.3 mph 96 % 0.00 in
06:36 63.7 °F 62.5 °F 30.19 in ENE 1.1 mph 2.3 mph 96 % 0.00 in
06:41 63.7 °F 62.5 °F 30.20 in East 2.8 mph 6.9 mph 96 % 0.00 in
06:46 63.7 °F 62.5 °F 30.19 in ENE 4.1 mph 6.9 mph 96 % 0.00 in
06:51 63.8 °F 62.6 °F 30.20 in ENE 2.3 mph 6.9 mph 96 % 0.00 in
06:57 63.8 °F 62.6 °F 30.20 in ENE 1.5 mph 3.5 mph 96 % 0.00 in
07:02 63.8 °F 62.6 °F 30.18 in ENE 1.9 mph 3.5 mph 96 % 0.00 in
07:07 63.8 °F 62.6 °F 30.18 in ENE 0.3 mph 3.5 mph 96 % 0.00 in
07:12 63.9 °F 62.7 °F 30.18 in ENE 1.5 mph 4.6 mph 96 % 0.00 in
07:17 63.9 °F 62.7 °F 30.19 in ENE 2.2 mph 3.5 mph 96 % 0.00 in
07:22 64.0 °F 62.8 °F 30.18 in ENE 1.7 mph 3.5 mph 96 % 0.00 in
07:27 64.0 °F 62.8 °F 30.18 in ENE 1.4 mph 2.3 mph 96 % 0.00 in
07:32 64.0 °F 62.8 °F 30.18 in ENE 2.8 mph 4.6 mph 96 % 0.00 in
07:37 64.1 °F 62.9 °F 30.19 in NE 3.8 mph 5.0 mph 96 % 0.00 in
07:42 64.1 °F 62.9 °F 30.18 in ENE 3.7 mph 5.8 mph 96 % 0.00 in
07:47 64.1 °F 62.9 °F 30.18 in ENE 2.0 mph 4.6 mph 96 % 0.00 in
07:52 64.2 °F 63.0 °F 30.19 in ENE 3.2 mph 8.1 mph 96 % 0.00 in
07:57 64.2 °F 63.0 °F 30.18 in ENE 4.3 mph 8.1 mph 96 % 0.00 in
08:02 64.2 °F 63.0 °F 30.18 in East 2.5 mph 5.0 mph 96 % 0.00 in
08:07 64.2 °F 63.0 °F 30.19 in ENE 4.9 mph 6.9 mph 96 % 0.00 in
08:12 64.2 °F 63.0 °F 30.18 in ENE 4.3 mph 9.2 mph 96 % 0.00 in
08:17 64.2 °F 63.0 °F 30.19 in ENE 2.7 mph 4.6 mph 96 % 0.00 in
08:22 64.2 °F 63.0 °F 30.18 in NE 5.2 mph 8.1 mph 96 % 0.00 in
08:27 64.2 °F 63.0 °F 30.19 in ENE 2.1 mph 4.6 mph 96 % 0.00 in
08:32 64.2 °F 63.0 °F 30.18 in ENE 3.9 mph 5.8 mph 96 % 0.00 in
08:37 64.2 °F 63.0 °F 30.18 in NE 2.5 mph 4.6 mph 96 % 0.00 in
08:42 64.2 °F 63.0 °F 30.19 in ENE 4.0 mph 8.1 mph 96 % 0.00 in
08:47 64.1 °F 62.9 °F 30.18 in NE 3.3 mph 9.2 mph 96 % 0.00 in
08:52 64.1 °F 62.9 °F 30.18 in ENE 2.1 mph 4.6 mph 96 % 0.00 in
08:57 64.1 °F 62.9 °F 30.18 in NE 3.9 mph 6.0 mph 96 % 0.00 in
09:02 64.0 °F 62.5 °F 30.18 in NE 3.5 mph 6.9 mph 95 % 0.00 in
09:07 64.0 °F 62.5 °F 30.18 in ENE 3.7 mph 9.2 mph 95 % 0.00 in
09:12 64.0 °F 62.5 °F 30.19 in NE 2.5 mph 6.9 mph 95 % 0.00 in
09:17 64.0 °F 62.5 °F 30.19 in ENE 3.1 mph 3.5 mph 95 % 0.00 in
09:22 63.9 °F 62.4 °F 30.19 in ENE 3.8 mph 8.1 mph 95 % 0.00 in
09:27 63.9 °F 62.4 °F 30.19 in NE 2.9 mph 7.0 mph 95 % 0.00 in
09:32 63.8 °F 62.3 °F 30.19 in NE 2.2 mph 4.6 mph 95 % 0.00 in
09:37 63.9 °F 62.4 °F 30.18 in ENE 2.4 mph 5.8 mph 95 % 0.00 in
09:43 63.9 °F 62.4 °F 30.18 in ENE 2.9 mph 6.9 mph 95 % 0.00 in
09:48 63.9 °F 62.4 °F 30.18 in ENE 3.1 mph 6.9 mph 95 % 0.00 in
09:53 63.9 °F 62.4 °F 30.18 in ENE 3.2 mph 4.6 mph 95 % 0.00 in
09:58 64.0 °F 62.5 °F 30.18 in East 2.6 mph 5.0 mph 95 % 0.00 in
10:03 64.1 °F 62.6 °F 30.18 in ENE 1.6 mph 3.5 mph 95 % 0.00 in
10:08 64.1 °F 62.6 °F 30.18 in ENE 4.2 mph 8.1 mph 95 % 0.00 in
10:13 64.1 °F 62.6 °F 30.18 in NE 4.0 mph 9.2 mph 95 % 0.00 in
10:18 64.1 °F 62.6 °F 30.18 in ENE 2.3 mph 3.5 mph 95 % 0.00 in
10:23 64.1 °F 62.6 °F 30.18 in ENE 3.6 mph 6.9 mph 95 % 0.00 in
10:28 64.1 °F 62.9 °F 30.18 in East 2.7 mph 5.0 mph 96 % 0.00 in
10:33 64.2 °F 63.0 °F 30.21 in ENE 3.3 mph 6.9 mph 96 % 0.00 in
10:38 64.2 °F 63.0 °F 30.21 in ENE 4.8 mph 8.1 mph 96 % 0.00 in
10:43 64.2 °F 63.0 °F 30.19 in NE 4.0 mph 6.9 mph 96 % 0.00 in
10:48 64.3 °F 63.1 °F 30.16 in NE 2.2 mph 3.5 mph 96 % 0.00 in
10:53 64.4 °F 63.2 °F 30.17 in ENE 1.9 mph 3.5 mph 96 % 0.00 in
10:58 64.5 °F 63.3 °F 30.21 in East 1.3 mph 5.0 mph 96 % 0.00 in
11:04 64.5 °F 63.3 °F 30.16 in NNW 2.0 mph 4.6 mph 96 % 0.00 in
11:09 64.6 °F 63.4 °F 30.15 in NE 1.7 mph 3.5 mph 96 % 0.00 in
11:14 64.8 °F 63.6 °F 30.15 in ENE 3.2 mph 6.9 mph 96 % 0.00 in
11:19 64.9 °F 63.7 °F 30.21 in NE 2.0 mph 8.1 mph 96 % 0.00 in
11:24 65.0 °F 63.8 °F 30.22 in East 3.7 mph 6.9 mph 96 % 0.00 in
11:29 65.1 °F 64.2 °F 30.22 in ENE 1.7 mph 3.5 mph 97 % 0.00 in
11:34 65.2 °F 64.3 °F 30.15 in ENE 1.1 mph 5.8 mph 97 % 0.00 in
11:39 65.2 °F 64.3 °F 30.22 in ENE 1.7 mph 3.5 mph 97 % 0.00 in
11:44 65.2 °F 64.0 °F 30.22 in ENE 1.6 mph 3.5 mph 96 % 0.00 in
11:49 65.3 °F 64.1 °F 30.22 in ENE 3.1 mph 5.0 mph 96 % 0.00 in
11:54 65.3 °F 64.1 °F 30.15 in ENE 4.5 mph 9.2 mph 96 % 0.00 in
11:59 65.3 °F 64.1 °F 30.18 in NE 2.9 mph 4.6 mph 96 % 0.00 in
12:04 65.5 °F 64.3 °F 30.15 in ENE 3.7 mph 6.9 mph 96 % 0.00 in
12:09 65.6 °F 64.4 °F 30.15 in NE 2.9 mph 6.9 mph 96 % 0.00 in
12:14 65.6 °F 64.4 °F 30.15 in ENE 3.2 mph 4.0 mph 96 % 0.00 in
12:19 65.7 °F 64.5 °F 30.15 in ENE 3.7 mph 8.1 mph 96 % 0.00 in
12:25 65.8 °F 64.6 °F 30.15 in ENE 1.8 mph 4.6 mph 96 % 0.00 in
12:30 66.0 °F 64.8 °F 30.20 in NE 0.7 mph 3.0 mph 96 % 0.00 in
12:35 66.1 °F 64.9 °F 30.14 in ENE 1.9 mph 4.6 mph 96 % 0.00 in
12:40 66.2 °F 65.0 °F 30.19 in NE 0.3 mph 3.5 mph 96 % 0.00 in
12:45 66.4 °F 65.2 °F 30.14 in ENE 1.9 mph 6.9 mph 96 % 0.00 in
12:50 66.5 °F 65.0 °F 30.14 in ENE 1.3 mph 4.6 mph 95 % 0.00 in
12:55 66.8 °F 65.3 °F 30.13 in ENE 1.8 mph 3.5 mph 95 % 0.00 in
13:00 67.2 °F 66.0 °F 30.13 in ENE 0.2 mph 2.3 mph 96 % 0.00 in
13:05 67.7 °F 66.2 °F 30.13 in ENE 2.0 mph 4.6 mph 95 % 0.00 in
13:10 68.1 °F 66.6 °F 30.13 in ENE 1.0 mph 5.8 mph 95 % 0.00 in
13:15 68.4 °F 66.6 °F 30.13 in North 1.4 mph 3.5 mph 94 % 0.00 in
13:20 68.7 °F 66.3 °F 30.16 in NE 2.4 mph 3.5 mph 92 % 0.00 in
13:25 68.8 °F 66.1 °F 30.15 in NW 1.0 mph 2.3 mph 91 % 0.00 in
13:30 69.2 °F 66.1 °F 30.13 in NNE 1.4 mph 4.6 mph 90 % 0.00 in
13:35 69.6 °F 66.9 °F 30.16 in NNE 0.4 mph 3.5 mph 91 % 0.00 in
13:40 70.0 °F 66.9 °F 30.11 in ENE 0.8 mph 4.0 mph 90 % 0.00 in
13:45 70.1 °F 66.4 °F 30.11 in ENE 0.8 mph 1.2 mph 88 % 0.00 in
13:50 70.2 °F 66.1 °F 30.10 in Calm   1.2 mph 87 % 0.00 in
13:55 70.8 °F 67.4 °F 30.11 in ENE 0.2 mph 1.2 mph 89 % 0.00 in
14:00 71.4 °F 67.7 °F 30.10 in Calm   1.2 mph 88 % 0.00 in
14:06 71.7 °F 67.3 °F 30.10 in ENE 1.0 mph 3.0 mph 86 % 0.00 in
14:11 72.0 °F 67.2 °F 30.10 in NE 0.2 mph 2.3 mph 85 % 0.00 in
14:16 72.1 °F 66.6 °F 30.11 in NE 1.0 mph 4.0 mph 83 % 0.00 in
14:21 72.2 °F 67.1 °F 30.10 in ENE 0.2 mph 1.2 mph 84 % 0.00 in
14:26 72.3 °F 67.2 °F 30.13 in ENE 1.0 mph 3.0 mph 84 % 0.00 in
14:31 72.4 °F 66.9 °F 30.10 in NE 0.5 mph 3.5 mph 83 % 0.00 in
14:36 72.5 °F 67.0 °F 30.10 in NE 1.0 mph 3.0 mph 83 % 0.00 in
14:41 72.5 °F 66.7 °F 30.09 in ENE 1.0 mph 3.0 mph 82 % 0.00 in
14:46 72.5 °F 66.7 °F 30.09 in Calm   2.0 mph 82 % 0.00 in
14:51 72.5 °F 66.7 °F 30.14 in ENE 1.0 mph 3.0 mph 82 % 0.00 in
14:56 72.5 °F 67.0 °F 29.99 in Calm   3.0 mph 83 % 0.00 in
15:01 72.6 °F 67.1 °F 30.04 in NE 0.6 mph 2.3 mph 83 % 0.00 in
15:06 72.6 °F 66.8 °F 30.03 in NE 1.0 mph 3.0 mph 82 % 0.00 in
15:11 72.5 °F 66.7 °F 30.07 in Calm   2.0 mph 82 % 0.00 in
15:16 72.5 °F 66.7 °F 30.08 in Calm   3.0 mph 82 % 0.00 in
15:21 72.4 °F 66.6 °F 30.00 in NNE 1.0 mph 3.0 mph 82 % 0.00 in
15:26 72.4 °F 66.6 °F 30.10 in Calm   1.2 mph 82 % 0.00 in
15:31 72.3 °F 66.5 °F 30.06 in Calm     82 % 0.01 in
15:36 72.1 °F 66.3 °F 30.04 in NNE 1.4 mph 3.5 mph 82 % 0.01 in
15:41 72.0 °F 66.2 °F 30.02 in Calm     82 % 0.01 in
15:46 71.7 °F 65.9 °F 30.06 in NE 0.1 mph 1.2 mph 82 % 0.01 in
15:51 71.5 °F 65.7 °F 30.03 in Calm     82 % 0.01 in
15:56 71.4 °F 65.6 °F 30.05 in NE 0.1 mph 1.2 mph 82 % 0.01 in
16:01 71.3 °F 65.5 °F 30.05 in NE 0.1 mph 2.3 mph 82 % 0.01 in
16:06 71.2 °F 66.1 °F 30.05 in North 1.3 mph 4.0 mph 84 % 0.01 in
16:11 71.0 °F 65.9 °F 30.08 in NNE 0.2 mph 1.2 mph 84 % 0.01 in
16:16 71.0 °F 65.9 °F 30.06 in NNE 0.1 mph 1.2 mph 84 % 0.01 in
16:21 71.0 °F 65.9 °F 30.09 in NNE 0.6 mph 2.0 mph 84 % 0.01 in
16:26 70.9 °F 65.8 °F 30.09 in NNE 0.4 mph 1.2 mph 84 % 0.01 in
16:31 70.9 °F 65.8 °F 30.09 in Calm   1.2 mph 84 % 0.00 in
16:36 70.8 °F 66.1 °F 30.08 in NNE 0.1 mph 1.0 mph 85 % 0.00 in
16:41 70.8 °F 65.7 °F 30.08 in NNE 0.6 mph 2.3 mph 84 % 0.00 in
16:46 70.8 °F 65.7 °F 30.09 in Calm     84 % 0.00 in
16:51 70.7 °F 65.3 °F 30.09 in Calm     83 % 0.00 in
16:56 70.6 °F 65.5 °F 30.08 in Calm     84 % 0.00 in
17:01 70.6 °F 65.9 °F 30.08 in Calm     85 % 0.00 in
17:06 70.4 °F 65.3 °F 30.08 in Calm     84 % 0.00 in
17:11 70.4 °F 65.7 °F 30.10 in Calm     85 % 0.00 in
17:16 70.3 °F 65.6 °F 30.07 in Calm     85 % 0.00 in
17:21 70.3 °F 65.6 °F 30.08 in Calm     85 % 0.00 in
17:27 70.2 °F 65.8 °F 30.08 in Calm     86 % 0.00 in
17:29 70.2 °F 65.8 °F 30.08 in Calm     86 % 0.00 in
17:34 70.1 °F 65.7 °F 30.08 in Calm     86 % 0.00 in
17:39 70.0 °F 65.6 °F 30.08 in Calm     86 % 0.00 in
17:44 70.0 °F 65.6 °F 30.08 in Calm     86 % 0.00 in
17:49 69.9 °F 65.5 °F 30.08 in Calm     86 % 0.00 in
17:50 69.9 °F 65.5 °F 30.08 in Calm     86 % 0.00 in
17:55 69.8 °F 65.4 °F 30.08 in Calm     86 % 0.00 in
18:00 69.8 °F 65.4 °F 30.09 in Calm     86 % 0.00 in
18:05 69.7 °F 65.3 °F 30.09 in Calm     86 % 0.00 in
18:10 69.5 °F 65.1 °F 30.09 in Calm     86 % 0.00 in
18:15 69.4 °F 65.4 °F 30.10 in Calm     87 % 0.00 in
18:20 69.2 °F 65.2 °F 30.09 in Calm     87 % 0.00 in
18:25 69.0 °F 65.0 °F 30.10 in Calm     87 % 0.00 in
18:30 68.8 °F 64.8 °F 30.09 in Calm     87 % 0.00 in
18:35 68.6 °F 64.6 °F 30.10 in Calm     87 % 0.00 in
18:40 68.4 °F 64.4 °F 30.14 in Calm     87 % 0.00 in
18:45 68.2 °F 64.5 °F 30.11 in Calm     88 % 0.00 in
18:50 68.0 °F 64.3 °F 30.10 in Calm     88 % 0.00 in
18:55 67.7 °F 64.0 °F 30.10 in Calm     88 % 0.00 in
19:00 67.5 °F 64.1 °F 30.11 in Calm     89 % 0.00 in
19:05 67.3 °F 63.9 °F 30.11 in Calm     89 % 0.00 in
19:10 67.1 °F 63.7 °F 30.11 in Calm     89 % 0.00 in
19:15 66.9 °F 63.6 °F 30.11 in Calm     89 % 0.00 in
19:20 66.7 °F 63.4 °F 30.11 in Calm     89 % 0.00 in
19:26 66.6 °F 63.3 °F 30.11 in Calm     89 % 0.00 in
19:31 66.5 °F 63.2 °F 30.11 in Calm     89 % 0.00 in
19:36 66.3 °F 63.3 °F 30.11 in Calm     90 % 0.00 in
19:41 66.2 °F 63.2 °F 30.11 in Calm     90 % 0.00 in
19:46 66.1 °F 63.1 °F 30.12 in Calm     90 % 0.00 in
19:51 66.1 °F 63.1 °F 30.12 in Calm   1.0 mph 90 % 0.00 in
19:56 66.1 °F 63.4 °F 30.11 in Calm     91 % 0.00 in
20:01 66.0 °F 63.3 °F 30.12 in Calm     91 % 0.00 in
20:06 66.0 °F 63.6 °F 30.12 in Calm     92 % 0.00 in
20:11 66.0 °F 63.6 °F 30.16 in Calm   1.0 mph 92 % 0.00 in
20:16 66.0 °F 63.6 °F 30.12 in Calm     92 % 0.00 in
20:21 66.0 °F 63.6 °F 30.12 in Calm     92 % 0.00 in
20:26 65.9 °F 63.5 °F 30.12 in Calm     92 % 0.00 in
20:31 65.9 °F 63.5 °F 30.16 in Calm     92 % 0.00 in
20:36 65.9 °F 63.5 °F 30.12 in Calm     92 % 0.00 in
20:41 65.9 °F 63.8 °F 30.12 in Calm     93 % 0.00 in
20:46 65.9 °F 63.8 °F 30.12 in Calm     93 % 0.00 in
20:51 65.9 °F 63.8 °F 30.15 in Calm     93 % 0.00 in
20:56 65.9 °F 63.8 °F 30.16 in Calm   1.0 mph 93 % 0.00 in
21:01 65.9 °F 63.8 °F 30.16 in Calm     93 % 0.00 in
21:06 65.9 °F 63.8 °F 30.15 in Calm     93 % 0.00 in
21:11 65.9 °F 63.8 °F 30.15 in Calm     93 % 0.00 in
21:16 65.9 °F 63.8 °F 30.16 in Calm     93 % 0.00 in
21:21 65.9 °F 63.8 °F 30.15 in Calm     93 % 0.00 in
21:26 65.9 °F 63.8 °F 30.16 in Calm     93 % 0.00 in
21:31 65.9 °F 63.8 °F 30.16 in Calm     93 % 0.00 in
21:36 65.9 °F 63.8 °F 30.15 in Calm     93 % 0.00 in
21:41 65.9 °F 63.8 °F 30.15 in Calm     93 % 0.00 in
21:46 65.9 °F 63.8 °F 30.15 in Calm     93 % 0.00 in
21:51 65.9 °F 63.8 °F 30.15 in Calm     93 % 0.00 in
21:56 66.0 °F 64.2 °F 30.15 in Calm     94 % 0.00 in
22:01 66.1 °F 64.3 °F 30.15 in Calm     94 % 0.00 in
22:06 66.1 °F 64.3 °F 30.15 in Calm     94 % 0.00 in
22:11 66.1 °F 64.3 °F 30.15 in Calm     94 % 0.00 in
22:16 66.2 °F 64.4 °F 30.15 in Calm     94 % 0.00 in
22:21 66.3 °F 64.5 °F 30.15 in Calm     94 % 0.00 in
22:26 66.3 °F 64.8 °F 30.15 in Calm     95 % 0.00 in
22:31 66.4 °F 64.9 °F 30.15 in Calm     95 % 0.00 in
22:36 66.4 °F 64.9 °F 30.15 in Calm     95 % 0.00 in
22:41 66.4 °F 64.9 °F 30.15 in NNE 0.1 mph 1.2 mph 95 % 0.00 in
22:46 66.5 °F 65.0 °F 30.14 in Calm     95 % 0.00 in
22:52 66.5 °F 65.0 °F 30.14 in Calm   1.2 mph 95 % 0.00 in
22:57 66.6 °F 65.1 °F 30.12 in Calm   1.2 mph 95 % 0.00 in
23:02 66.6 °F 65.1 °F 30.14 in Calm     95 % 0.00 in
23:07 66.7 °F 65.2 °F 30.12 in Calm     95 % 0.00 in
23:12 66.7 °F 65.2 °F 30.11 in Calm     95 % 0.00 in
23:17 66.7 °F 65.2 °F 30.11 in Calm     95 % 0.00 in
23:22 66.7 °F 65.2 °F 30.11 in Calm     95 % 0.00 in
23:27 66.7 °F 65.2 °F 30.12 in Calm     95 % 0.00 in
23:32 66.7 °F 65.2 °F 30.14 in Calm     95 % 0.00 in
23:37 66.8 °F 65.3 °F 30.11 in Calm     95 % 0.00 in
23:42 66.8 °F 65.3 °F 30.11 in Calm     95 % 0.00 in
23:47 66.8 °F 65.3 °F 30.14 in Calm   1.2 mph 95 % 0.00 in
23:52 66.8 °F 65.3 °F 30.14 in Calm     95 % 0.00 in
23:57 66.8 °F 65.3 °F 30.11 in Calm     95 % 0.00 in
Crab Meadow Weather
Compliments of Weather Underground - 3 mb

Script developed by  Jim McMurry - jmcmurry@mwt.net Adapted for the template by  Wim van der Kuil - Leuven-Template.eu

Extremes: Alaska and Hawaii have the same heat record. In Pahala, Hawaii the temperature on April 27, 1931 was 100 degrees F. Alaska's state heat record is also 100 degrees F. on June 27, 1915 at Fort Yukon.